Time;durP1;ratioP1;P1;durP2;ratioP2;P2;SDS_P1;SDS_P2;PMS_P1;PMS_P2;Temp;Humidity;BMP_temperature;BMP_pressure;BME280_temperature;BME280_humidity;BME280_pressure;Samples;Min_cycle;Max_cycle;Signal;HPM_P1;HPM_P2
2022/05/17 00:01:09;;;;;;;5.55;3.08;;;17.90;70.80;;;18.19;57.45;98063.72;5007713;28;20065;-37
2022/05/17 00:03:37;;;;;;;4.55;3.63;;;17.80;70.90;;;18.18;57.32;98067.44;5007912;28;20256;-37
2022/05/17 00:06:06;;;;;;;5.68;3.25;;;17.80;70.90;;;18.17;57.46;98063.94;5007115;28;20046;-37
2022/05/17 00:08:34;;;;;;;6.40;3.05;;;17.80;71.00;;;18.16;57.33;98064.13;5007262;28;20058;-37
2022/05/17 00:11:02;;;;;;;6.05;3.00;;;17.70;71.10;;;18.06;57.79;98065.31;5007184;28;20416;-37
2022/05/17 00:13:30;;;;;;;6.28;3.25;;;17.60;71.40;;;18.06;57.59;98069.88;5006788;28;20048;-37
2022/05/17 00:16:01;;;;;;;4.53;3.50;;;17.60;71.60;;;18.01;57.64;98066.94;5006620;28;20052;-37
2022/05/17 00:18:29;;;;;;;3.67;3.30;;;17.60;71.70;;;18.01;57.65;98067.78;5008253;28;20049;-37
2022/05/17 00:20:57;;;;;;;6.00;3.13;;;17.60;71.70;;;17.99;57.88;98069.84;5006710;28;20064;-37
2022/05/17 00:23:26;;;;;;;6.47;4.18;;;17.60;71.60;;;17.98;57.67;98067.34;5007102;28;20053;-37
2022/05/17 00:25:54;;;;;;;5.45;2.97;;;17.60;71.50;;;17.90;58.17;98060.25;5005927;28;20053;-37
2022/05/17 00:28:22;;;;;;;3.90;2.80;;;17.50;72.20;;;17.86;58.22;98069.75;5006893;28;20052;-37
2022/05/17 00:30:50;;;;;;;5.05;3.33;;;17.40;72.50;;;17.83;58.14;98068.25;5007078;28;20048;-37
2022/05/17 00:33:21;;;;;;;6.70;3.90;;;17.40;72.40;;;17.80;58.12;98068.66;5006517;28;20382;-37
2022/05/17 00:35:49;;;;;;;6.55;3.40;;;17.30;72.70;;;17.74;58.33;98071.28;5007724;28;20059;-37
2022/05/17 00:38:18;;;;;;;5.45;3.35;;;17.30;72.90;;;17.65;58.94;98071.44;5007037;28;20064;-37
2022/05/17 00:40:46;;;;;;;8.50;4.07;;;17.20;74.10;;;17.62;58.83;98074.53;5006508;28;20061;-37
2022/05/17 00:46:44;;;;;;;4.97;3.05;;;17.20;73.90;;;17.60;58.79;98068.53;5006533;28;20243;-37
2022/05/17 00:49:21;;;;;;;3.83;3.05;;;17.20;73.60;;;17.58;59.07;98067.84;5006950;28;20052;-37
2022/05/17 00:51:49;;;;;;;4.07;3.53;;;17.20;74.00;;;17.59;58.70;98061.47;5005470;28;20050;-37
2022/05/17 00:54:18;;;;;;;4.45;3.13;;;17.20;73.70;;;17.63;58.84;98060.03;5005801;28;20128;-37
2022/05/17 00:57:14;;;;;;;5.97;3.20;;;17.30;73.40;;;17.68;58.64;98059.44;5006554;28;20520;-37
2022/05/17 00:59:42;;;;;;;4.97;3.05;;;17.40;73.20;;;17.76;58.33;98055.75;5006565;28;20052;-37
2022/05/17 01:02:11;;;;;;;4.95;3.35;;;17.40;72.30;;;17.81;58.40;98053.31;5006941;28;20050;-37
2022/05/17 01:04:40;;;;;;;5.70;3.47;;;17.50;72.20;;;17.83;58.13;98054.78;5006642;28;20252;-37
2022/05/17 01:07:16;;;;;;;3.88;3.20;;;17.50;72.00;;;17.84;58.11;98051.09;5004803;28;20042;-37
2022/05/17 01:09:44;;;;;;;9.75;3.45;;;17.50;72.00;;;17.86;57.88;98050.91;5006999;28;20058;-37
2022/05/17 01:12:12;;;;;;;3.88;3.50;;;17.60;71.70;;;17.90;58.09;98054.88;5006748;28;20053;-37
2022/05/17 01:15:00;;;;;;;7.80;3.30;;;17.60;71.50;;;17.90;57.93;98050.31;5004083;28;20291;-37
2022/05/17 01:17:32;;;;;;;5.10;3.15;;;17.50;71.60;;;17.88;58.09;98052.38;5009537;28;20503;-37
2022/05/17 01:20:04;;;;;;;5.68;3.53;;;17.50;71.90;;;17.88;57.94;98052.38;5010412;28;20255;-37
2022/05/17 01:22:32;;;;;;;5.22;3.50;;;17.50;71.70;;;17.85;57.99;98051.91;5010961;28;20058;-37
2022/05/17 01:25:00;;;;;;;7.53;3.47;;;17.50;72.00;;;17.85;57.91;98052.75;5011079;28;20493;-37
2022/05/17 01:27:43;;;;;;;4.85;3.53;;;17.50;71.90;;;17.81;57.94;98051.44;5010945;28;20050;-37
2022/05/17 01:30:25;;;;;;;5.53;3.73;;;17.40;72.20;;;17.76;58.12;98053.06;5009232;28;20058;-37
2022/05/17 01:32:53;;;;;;;9.05;4.47;;;17.30;72.70;;;17.73;58.29;98058.88;5011117;28;20299;-37
2022/05/17 01:35:22;;;;;;;7.72;3.67;;;17.30;72.60;;;17.69;58.47;98053.03;5009924;28;20151;-37
2022/05/17 01:37:54;;;;;;;6.35;4.57;;;17.30;72.80;;;17.65;58.58;98049.91;5010166;28;20055;-37
2022/05/17 01:40:24;;;;;;;4.20;3.80;;;17.20;72.80;;;17.65;58.52;98049.91;5009717;28;20368;-37
2022/05/17 01:42:52;;;;;;;5.10;3.47;;;17.30;72.90;;;17.60;58.89;98051.50;5007945;28;20415;-37
2022/05/17 01:45:20;;;;;;;7.65;4.13;;;17.20;73.10;;;17.58;58.83;98059.78;5009559;28;20049;-37
2022/05/17 01:47:49;;;;;;;7.00;4.22;;;17.20;73.20;;;17.55;58.71;98060.19;5009797;28;20068;-37
2022/05/17 01:50:17;;;;;;;6.10;3.35;;;17.20;73.60;;;17.49;59.12;98053.72;5010258;28;20044;-37
2022/05/17 01:52:45;;;;;;;6.65;3.42;;;17.10;73.80;;;17.50;58.89;98054.56;5010173;28;20046;-37
2022/05/17 01:55:14;;;;;;;5.53;3.35;;;17.10;73.70;;;17.46;58.98;98046.03;5010913;28;20064;-37
2022/05/17 01:57:42;;;;;;;7.53;4.43;;;17.10;73.70;;;17.43;59.17;98053.69;5009339;28;20059;-37
2022/05/17 02:00:13;;;;;;;5.10;3.70;;;17.00;74.10;;;17.40;59.54;98046.00;5008129;28;20046;-37
2022/05/17 02:02:41;;;;;;;7.47;3.85;;;17.00;74.50;;;17.38;59.41;98048.88;5009346;28;20108;-37
2022/05/17 02:05:17;;;;;;;4.93;3.95;;;17.00;74.40;;;17.35;59.29;98043.91;5008663;28;20046;-37
2022/05/17 02:07:46;;;;;;;6.32;4.20;;;16.90;74.60;;;17.38;59.32;98046.19;5008185;28;20223;-37
2022/05/17 02:10:14;;;;;;;6.68;4.82;;;16.90;74.30;;;17.35;59.51;98043.03;5008837;28;20337;-37
2022/05/17 02:12:42;;;;;;;4.68;3.80;;;16.90;74.70;;;17.34;59.31;98044.91;5010933;28;20352;-37
2022/05/17 02:15:11;;;;;;;6.63;4.60;;;16.90;74.80;;;17.34;59.46;98042.22;5010235;28;20267;-37
2022/05/17 02:17:39;;;;;;;5.05;3.83;;;16.90;75.20;;;17.34;59.25;98039.53;5009376;28;20054;-37
2022/05/17 02:20:08;;;;;;;5.78;4.28;;;16.90;74.60;;;17.35;59.37;98037.66;5009858;28;20045;-37
2022/05/17 02:22:36;;;;;;;6.38;3.88;;;17.00;74.30;;;17.36;59.09;98031.25;5008617;28;20064;-37
2022/05/17 02:25:04;;;;;;;6.85;3.90;;;17.00;74.20;;;17.32;59.55;98041.59;5009336;28;20052;-37
2022/05/17 02:27:32;;;;;;;6.38;4.45;;;16.90;74.60;;;17.27;59.60;98036.78;5009074;28;20204;-38
2022/05/17 02:30:00;;;;;;;5.93;4.43;;;16.90;74.80;;;17.27;59.64;98039.50;5009341;28;20060;-37
2022/05/17 02:32:28;;;;;;;6.57;4.30;;;16.80;75.10;;;17.25;59.55;98049.63;5009529;28;20652;-37
2022/05/17 02:34:56;;;;;;;6.57;4.75;;;16.80;75.20;;;17.20;59.77;98046.66;5009189;28;20072;-37
2022/05/17 02:37:24;;;;;;;5.82;4.38;;;16.80;75.30;;;17.18;59.71;98046.03;5009253;28;20052;-37
2022/05/17 02:39:52;;;;;;;7.20;4.38;;;16.70;75.40;;;17.16;59.99;98055.28;5008956;28;20065;-37
2022/05/17 02:42:20;;;;;;;5.85;4.13;;;16.80;75.50;;;17.19;59.79;98054.91;5009234;28;20054;-37
2022/05/17 02:44:48;;;;;;;8.18;4.57;;;16.80;74.90;;;17.24;59.50;98055.19;5006268;28;20054;-37
2022/05/17 02:47:16;;;;;;;5.47;4.47;;;16.90;74.40;;;17.24;59.25;98064.06;5008099;28;20037;-37
2022/05/17 02:49:45;;;;;;;5.55;4.50;;;16.90;74.00;;;17.22;58.90;98058.06;5009456;28;20042;-37
2022/05/17 02:52:13;;;;;;;5.55;4.25;;;16.90;73.90;;;17.19;58.91;98061.13;5008897;28;20060;-37
2022/05/17 02:54:41;;;;;;;5.93;4.68;;;16.70;73.70;;;17.16;58.95;98064.22;5008237;28;20054;-37
2022/05/17 02:57:09;;;;;;;5.15;4.55;;;16.70;73.70;;;17.11;58.68;98061.25;5009326;28;20247;-37
2022/05/17 02:59:37;;;;;;;5.45;4.35;;;16.60;73.70;;;17.09;58.93;98071.38;5008607;28;20058;-37
2022/05/17 03:02:05;;;;;;;7.53;4.07;;;16.60;73.90;;;17.05;58.96;98070.09;5009604;28;20060;-37
2022/05/17 03:04:33;;;;;;;7.90;4.78;;;16.60;74.00;;;17.02;58.91;98081.25;5008478;28;20370;-37
2022/05/17 03:07:01;;;;;;;5.90;4.70;;;16.50;74.20;;;16.98;58.95;98079.97;5008372;28;20053;-37
2022/05/17 03:09:29;;;;;;;7.05;4.93;;;16.50;74.20;;;16.92;59.04;98081.56;5006921;28;20352;-37
2022/05/17 03:11:57;;;;;;;5.45;4.07;;;16.40;74.30;;;16.87;58.97;98086.69;5008220;28;20377;-37
2022/05/17 03:14:25;;;;;;;9.77;4.70;;;16.30;74.60;;;16.81;59.16;98082.03;5008395;28;20270;-37
2022/05/17 03:16:53;;;;;;;7.15;4.95;;;16.20;74.90;;;16.75;58.89;98089.00;5009090;28;20259;-37
2022/05/17 03:19:20;;;;;;;5.85;4.88;;;16.10;75.10;;;16.71;58.92;98093.06;5007142;28;20052;-37
2022/05/17 03:21:48;;;;;;;8.55;4.35;;;16.20;75.10;;;16.65;59.20;98089.31;5007884;28;20068;-37
2022/05/17 03:24:16;;;;;;;7.30;4.88;;;16.10;75.10;;;16.62;58.93;98095.06;5008518;28;20065;-37
2022/05/17 03:27:05;;;;;;;6.18;4.65;;;16.10;75.30;;;16.59;59.00;98094.59;5009005;28;20700;-37
2022/05/17 03:29:33;;;;;;;7.97;4.82;;;16.00;75.40;;;16.52;59.33;98100.75;5008687;28;20050;-37
2022/05/17 03:32:01;;;;;;;5.50;4.70;;;15.90;75.50;;;16.49;59.38;98100.28;5008529;28;20050;-37
2022/05/17 03:34:30;;;;;;;5.75;4.80;;;15.90;75.60;;;16.44;59.63;98097.31;5024223;28;20084;-37
2022/05/17 03:36:58;;;;;;;6.28;5.20;;;15.90;76.00;;;16.40;59.51;98109.44;5007079;28;20056;-37
2022/05/17 03:39:26;;;;;;;6.25;4.70;;;15.90;76.10;;;16.36;60.08;98100.09;5009022;28;20065;-37
2022/05/17 03:41:55;;;;;;;5.53;4.00;;;15.80;76.30;;;16.31;59.81;98098.81;5007931;28;20045;-37
2022/05/17 03:44:23;;;;;;;6.40;4.28;;;15.80;76.70;;;16.27;59.96;98102.06;5006849;28;20050;-37
2022/05/17 03:46:51;;;;;;;6.03;4.90;;;15.70;77.20;;;16.24;60.27;98105.13;5007999;28;20056;-37
2022/05/17 03:49:18;;;;;;;7.82;4.82;;;15.70;77.60;;;16.21;60.53;98109.03;5008250;28;20055;-37
2022/05/17 03:51:47;;;;;;;5.32;4.18;;;15.70;78.10;;;16.19;60.75;98112.88;5006547;28;20058;-37
2022/05/17 03:54:21;;;;;;;5.47;4.68;;;15.70;78.70;;;16.18;60.77;98114.75;5007226;28;20046;-37
2022/05/17 03:56:50;;;;;;;7.65;4.65;;;15.70;78.90;;;16.19;60.63;98113.75;5007614;28;20516;-37
2022/05/17 03:59:18;;;;;;;7.30;4.60;;;15.80;78.50;;;16.18;60.40;98114.75;5007818;28;20049;-37
2022/05/17 04:01:46;;;;;;;9.98;6.20;;;15.70;78.30;;;16.21;60.79;98116.25;4990516;28;20076;-37
2022/05/17 04:04:14;;;;;;;6.47;4.45;;;15.80;78.50;;;16.23;60.98;98119.59;5007489;28;20062;-37
2022/05/17 04:06:42;;;;;;;8.98;4.75;;;15.80;79.10;;;16.21;60.82;98121.63;5007812;28;20049;-37
2022/05/17 04:09:10;;;;;;;6.72;4.40;;;15.80;79.00;;;16.24;60.99;98129.28;5007571;28;20222;-37
2022/05/17 04:11:38;;;;;;;7.90;5.00;;;15.80;78.80;;;16.24;60.86;98127.44;5007614;28;20385;-37
2022/05/17 04:14:07;;;;;;;5.60;5.00;;;15.80;78.80;;;16.22;60.71;98131.34;5007119;28;20049;-37
2022/05/17 04:16:39;;;;;;;6.70;5.03;;;15.80;78.90;;;16.19;60.86;98129.84;5007694;28;20068;-37
2022/05/17 04:19:07;;;;;;;6.25;4.82;;;15.80;79.10;;;16.20;60.86;98131.50;5005765;28;20168;-37
2022/05/17 04:21:36;;;;;;;7.95;4.50;;;15.70;79.00;;;16.21;60.91;98135.88;5007152;28;20064;-37
2022/05/17 04:24:04;;;;;;;4.95;4.25;;;15.80;78.80;;;16.24;60.93;98135.50;5006907;28;20042;-37
2022/05/17 04:26:32;;;;;;;6.10;5.00;;;15.80;78.70;;;16.27;60.86;98143.19;5007539;28;20236;-37
2022/05/17 04:29:00;;;;;;;7.90;5.13;;;15.90;78.60;;;16.29;60.86;98141.16;5008702;28;20045;-37
2022/05/17 04:31:28;;;;;;;6.40;4.43;;;15.90;78.60;;;16.28;60.86;98144.00;5007624;28;20046;-37
2022/05/17 04:33:56;;;;;;;6.72;4.53;;;15.80;78.60;;;16.27;61.07;98145.88;5005807;28;20049;-38
2022/05/17 04:36:24;;;;;;;7.30;5.30;;;15.80;78.90;;;16.30;60.95;98141.97;5007713;28;20046;-38
2022/05/17 04:38:52;;;;;;;7.88;4.70;;;15.90;79.00;;;16.33;61.28;98147.00;5006546;28;20058;-38
2022/05/17 04:41:21;;;;;;;7.45;5.50;;;16.00;78.90;;;16.34;61.18;98146.81;5006959;28;20081;-37
2022/05/17 04:43:51;;;;;;;7.13;5.88;;;15.90;79.00;;;16.38;61.31;98149.97;5006140;28;20054;-38
2022/05/17 04:46:21;;;;;;;7.95;5.53;;;16.00;79.10;;;16.41;61.55;98152.25;5007511;28;20263;-38
2022/05/17 04:48:49;;;;;;;8.65;5.18;;;16.10;79.60;;;16.44;61.64;98148.38;5005912;28;20046;-37
2022/05/17 04:51:17;;;;;;;6.72;5.45;;;16.10;79.70;;;16.48;61.80;98152.38;5005851;28;20058;-37
2022/05/17 04:53:45;;;;;;;8.00;5.45;;;16.20;79.80;;;16.50;61.71;98153.84;5004811;28;20072;-37
2022/05/17 04:56:19;;;;;;;6.55;5.50;;;16.20;79.90;;;16.57;61.87;98155.78;5007211;28;20358;-38
2022/05/17 04:58:47;;;;;;;8.43;5.85;;;16.30;79.80;;;16.60;61.69;98153.56;5006351;28;20060;-38
2022/05/17 05:01:14;;;;;;;8.00;5.60;;;16.30;79.50;;;16.64;61.76;98157.53;5005644;28;20066;-38
2022/05/17 05:03:42;;;;;;;6.07;5.30;;;16.40;79.40;;;16.66;61.59;98160.03;5006750;28;20166;-38
2022/05/17 05:06:10;;;;;;;8.68;4.63;;;16.40;79.40;;;16.68;61.76;98155.31;5006049;28;20061;-37
2022/05/17 05:08:38;;;;;;;7.72;4.78;;;16.40;79.60;;;16.73;61.87;98158.28;5006715;28;20056;-37
2022/05/17 05:11:06;;;;;;;6.03;4.95;;;16.50;80.50;;;16.77;62.05;98156.88;5006221;28;20372;-37
2022/05/17 05:13:34;;;;;;;7.35;4.93;;;16.50;79.70;;;16.82;62.08;98164.38;5005478;28;20052;-37
2022/05/17 05:16:01;;;;;;;9.23;5.65;;;16.60;79.70;;;16.84;62.18;98152.41;5006634;28;20045;-37
2022/05/17 05:18:29;;;;;;;9.23;5.18;;;16.60;79.60;;;16.89;62.18;98155.38;5004528;28;20060;-37
2022/05/17 05:21:10;;;;;;;13.52;5.00;;;16.70;79.60;;;16.95;62.26;98159.19;5005178;28;20041;-37
2022/05/17 05:23:41;;;;;;;7.63;5.75;;;16.80;80.30;;;17.01;62.15;98157.59;5006797;28;20355;-38
2022/05/17 05:26:11;;;;;;;7.90;5.45;;;16.90;79.70;;;17.06;62.11;98163.22;5005991;28;20256;-37
2022/05/17 05:28:41;;;;;;;7.57;5.15;;;16.90;79.40;;;17.10;62.12;98159.16;5005993;28;20344;-37
2022/05/17 05:31:17;;;;;;;6.38;5.78;;;17.00;79.10;;;17.16;62.06;98171.81;5004949;28;20049;-38
2022/05/17 05:33:45;;;;;;;7.30;6.35;;;17.10;78.70;;;17.18;62.15;98167.09;5007242;28;20038;-38
2022/05/17 05:36:12;;;;;;;6.30;5.22;;;17.20;78.40;;;17.25;62.00;98170.69;5006939;28;20303;-38
2022/05/17 05:38:41;;;;;;;8.07;5.85;;;17.20;78.20;;;17.31;61.84;98167.22;5006159;28;20060;-37
2022/05/17 05:41:13;;;;;;;7.03;5.32;;;17.30;78.10;;;17.36;61.74;98174.72;5006535;28;20054;-37
2022/05/17 05:43:41;;;;;;;9.38;4.90;;;17.30;78.10;;;17.40;61.77;98170.63;5006597;28;20046;-37
2022/05/17 05:46:10;;;;;;;6.68;5.38;;;17.40;77.60;;;17.42;61.76;98171.25;5007008;28;20053;-38
2022/05/17 05:48:38;;;;;;;8.75;4.95;;;17.40;77.40;;;17.48;61.75;98173.16;5006390;28;20053;-37
2022/05/17 05:51:07;;;;;;;8.27;5.18;;;17.50;77.30;;;17.52;61.78;98171.78;5006887;28;20052;-37
2022/05/17 05:53:35;;;;;;;7.75;5.03;;;17.50;77.30;;;17.57;61.70;98176.56;5006137;28;20070;-37
2022/05/17 05:56:05;;;;;;;5.90;5.00;;;17.60;77.20;;;17.63;61.72;98185.75;5006759;28;20370;-38
2022/05/17 05:58:39;;;;;;;8.05;5.00;;;17.60;77.10;;;17.68;61.72;98185.97;5006545;28;20056;-37
2022/05/17 06:01:07;;;;;;;6.68;5.30;;;17.70;77.20;;;17.72;61.72;98184.59;5006992;28;20084;-37
2022/05/17 06:03:35;;;;;;;6.20;5.22;;;17.70;77.10;;;17.77;61.73;98187.50;5008480;28;20068;-37
2022/05/17 06:06:05;;;;;;;7.38;5.00;;;17.80;77.00;;;17.78;61.98;98186.50;5009399;28;20359;-37
2022/05/17 06:08:35;;;;;;;5.95;4.93;;;17.90;77.00;;;17.84;61.93;98184.94;5010028;28;20045;-37
2022/05/17 06:11:04;;;;;;;5.30;4.72;;;17.90;76.80;;;17.90;61.83;98186.84;5008480;28;20061;-37
2022/05/17 06:13:34;;;;;;;5.97;5.20;;;18.00;76.70;;;17.94;61.92;98188.09;5008023;28;20050;-37
2022/05/17 06:16:03;;;;;;;7.43;5.47;;;18.10;76.70;;;18.00;61.73;98186.50;5010478;28;20054;-37
2022/05/17 06:18:31;;;;;;;10.40;4.60;;;18.10;76.50;;;18.05;61.50;98189.44;5008867;28;20057;-37
2022/05/17 06:21:01;;;;;;;6.63;4.70;;;18.10;76.50;;;18.11;61.36;98191.34;5008968;28;20054;-37
2022/05/17 06:23:30;;;;;;;6.15;4.35;;;18.20;76.30;;;18.15;61.66;98184.53;5021910;28;20037;-37
2022/05/17 06:25:59;;;;;;;7.60;4.97;;;18.20;76.30;;;18.11;61.07;98185.97;5037876;28;20038;-37
2022/05/17 06:28:29;;;;;;;8.05;5.05;;;18.10;75.90;;;18.18;61.17;98194.09;5040215;28;20053;-37
2022/05/17 06:30:57;;;;;;;6.85;4.90;;;18.20;76.00;;;18.23;61.08;98192.47;5039247;28;20057;-37
2022/05/17 06:33:26;;;;;;;5.85;4.53;;;18.20;75.90;;;18.29;61.02;98188.97;5037401;28;20043;-37
2022/05/17 06:35:54;;;;;;;7.47;5.10;;;18.30;75.80;;;18.34;60.95;98190.25;5039660;28;20080;-37
2022/05/17 06:38:24;;;;;;;7.10;5.53;;;18.40;75.50;;;18.38;60.93;98188.81;5040410;28;20041;-37
2022/05/17 06:40:53;;;;;;;7.25;6.00;;;18.40;75.10;;;18.41;60.74;98189.25;5023411;28;20048;-37
2022/05/17 06:43:21;;;;;;;7.18;6.05;;;18.50;75.30;;;18.45;60.84;98189.69;5039404;28;20060;-37
2022/05/17 06:45:49;;;;;;;6.30;5.68;;;18.50;75.20;;;18.48;60.79;98192.00;5040016;28;20047;-37
2022/05/17 06:48:19;;;;;;;6.93;5.80;;;18.60;75.00;;;18.53;60.71;98186.84;5039863;28;20049;-37
2022/05/17 06:50:47;;;;;;;6.63;5.07;;;18.60;74.80;;;18.58;60.63;98186.25;5040818;28;20274;-37
2022/05/17 06:53:15;;;;;;;7.05;5.72;;;18.70;74.80;;;18.63;60.67;98194.56;5039882;28;20041;-37
2022/05/17 06:55:44;;;;;;;6.30;5.70;;;18.70;74.50;;;18.68;60.73;98194.81;5037476;28;20227;-37
2022/05/17 06:58:12;;;;;;;10.98;5.95;;;18.80;74.50;;;18.73;60.55;98192.34;5039764;28;20057;-37
2022/05/17 07:00:40;;;;;;;8.90;6.18;;;18.80;74.20;;;18.78;60.65;98195.25;5038527;28;20037;-37
2022/05/17 07:03:08;;;;;;;9.63;5.88;;;18.90;74.30;;;18.84;60.33;98199.06;5037679;28;20220;-37
2022/05/17 07:05:36;;;;;;;7.65;5.97;;;19.00;73.90;;;18.87;60.21;98196.78;5042639;28;20170;-37
2022/05/17 07:08:05;;;;;;;7.95;5.78;;;19.00;73.60;;;18.92;60.21;98196.22;5043751;28;20048;-38
2022/05/17 07:13:19;;;;;;;7.47;6.10;;;19.10;73.20;;;19.05;60.20;98203.50;5044283;28;20053;-38
2022/05/17 07:15:50;;;;;;;8.35;6.00;;;19.20;73.20;;;19.11;60.01;98204.56;5042802;28;20076;-38
2022/05/17 07:18:23;;;;;;;11.52;5.68;;;19.30;73.10;;;19.16;59.88;98210.19;5043785;28;20045;-38
2022/05/17 07:20:52;;;;;;;;;;;19.30;72.80;;;19.16;59.84;98207.50;5043855;28;20064;-38
2022/05/17 07:23:21;;;;;;;8.75;6.22;;;19.30;72.50;;;19.22;59.87;98210.22;5042717;28;19917;-38
2022/05/17 07:25:49;;;;;;;9.18;5.63;;;19.40;73.00;;;19.27;59.42;98204.22;5040542;28;20037;-38
2022/05/17 07:28:21;;;;;;;9.90;6.43;;;19.40;72.30;;;19.32;59.33;98201.72;5037555;28;20324;-38
2022/05/17 07:30:50;;;;;;;7.83;5.33;;;19.50;71.80;;;19.36;58.94;98202.16;5033744;28;20057;-38
2022/05/17 07:33:19;;;;;;;6.82;4.80;;;19.50;71.20;;;19.42;58.47;98206.72;5032043;28;20296;-38
2022/05/17 07:35:48;;;;;;;7.18;5.20;;;19.60;70.50;;;19.44;58.27;98205.50;5030208;28;20063;-38
2022/05/17 07:38:17;;;;;;;7.75;5.47;;;19.60;69.90;;;19.50;58.27;98201.13;5029107;28;20053;-38
2022/05/17 07:40:45;;;;;;;10.55;5.70;;;19.70;70.00;;;19.56;58.10;98207.59;5028242;28;20059;-38
2022/05/17 07:43:13;;;;;;;8.30;5.35;;;19.80;69.60;;;19.62;57.75;98209.50;5027418;28;20053;-38
2022/05/17 07:45:41;;;;;;;10.75;4.97;;;19.80;68.80;;;19.70;57.65;98205.72;5028337;28;20041;-38
2022/05/17 07:48:09;;;;;;;7.43;5.28;;;19.90;68.60;;;19.77;57.31;98212.84;5042499;28;20071;-38
2022/05/17 07:50:37;;;;;;;11.15;5.68;;;20.00;68.40;;;19.82;57.23;98204.94;5026818;28;20236;-38
2022/05/17 07:53:09;;;;;;;9.27;5.05;;;20.10;68.10;;;19.88;57.21;98213.28;5027391;28;20068;-38
2022/05/17 07:55:39;;;;;;;8.02;6.10;;;20.10;67.90;;;19.92;57.26;98209.94;5027747;28;20053;-38
2022/05/17 07:58:08;;;;;;;7.65;5.60;;;20.20;67.80;;;20.01;57.02;98210.59;5027258;28;20061;-38
2022/05/17 08:00:38;;;;;;;7.97;5.38;;;20.40;67.50;;;20.09;56.64;98207.66;5031864;28;20071;-38
2022/05/17 08:03:08;;;;;;;8.40;4.90;;;20.40;66.90;;;20.15;56.21;98206.00;5034595;28;20049;-38
2022/05/17 08:05:37;;;;;;;5.78;5.07;;;20.40;66.30;;;20.21;56.10;98205.16;5037781;28;20045;-38
2022/05/17 08:08:05;;;;;;;6.03;4.78;;;20.50;65.80;;;20.28;55.57;98203.28;5034798;28;20053;-38
2022/05/17 08:10:33;;;;;;;7.20;4.97;;;20.60;65.20;;;20.29;55.37;98199.53;5036892;28;21028;-38
2022/05/17 08:13:01;;;;;;;8.95;5.40;;;20.60;64.70;;;20.33;55.39;98203.47;5035574;28;20107;-38
2022/05/17 08:15:30;;;;;;;5.22;4.35;;;20.70;64.80;;;20.37;55.61;98210.13;5036480;28;20045;-38
2022/05/17 08:18:04;;;;;;;12.35;5.68;;;20.70;65.20;;;20.43;55.22;98206.59;5035217;28;20351;-38
2022/05/17 08:20:34;;;;;;;8.27;6.18;;;20.70;65.00;;;20.48;54.84;98208.66;5035111;28;20059;-38
2022/05/17 08:23:04;;;;;;;6.35;4.53;;;20.80;64.20;;;20.54;54.61;98199.69;5047389;28;20045;-38
2022/05/17 08:28:20;;;;;;;8.55;4.32;;;20.90;63.00;;;20.65;53.96;98199.06;5046659;28;20059;-38
2022/05/17 08:30:48;;;;;;;6.78;5.10;;;21.00;62.70;;;20.69;54.02;98204.91;5047243;28;20436;-38
2022/05/17 08:33:19;;;;;;;6.30;5.30;;;21.00;62.30;;;20.74;53.73;98202.38;5046316;28;20247;-38
2022/05/17 08:36:00;;;;;;;7.32;5.70;;;21.10;62.60;;;20.81;53.89;98205.88;5046875;28;20057;-38
2022/05/17 08:38:34;;;;;;;7.72;5.43;;;21.20;61.60;;;20.89;53.74;98199.41;5045673;28;20060;-38
2022/05/17 08:41:30;;;;;;;5.90;4.22;;;21.30;62.10;;;20.96;53.53;98196.69;5046333;28;20053;-38
2022/05/17 08:44:08;;;;;;;6.53;4.15;;;21.30;61.80;;;21.01;52.59;98195.00;5045470;28;20369;-38
2022/05/17 08:46:39;;;;;;;7.32;3.95;;;21.40;60.60;;;21.10;52.54;98192.03;5045463;28;20057;-38
2022/05/17 08:49:35;;;;;;;5.57;4.25;;;21.40;60.40;;;21.17;52.24;98198.25;5044698;28;20044;-38
2022/05/17 08:52:13;;;;;;;7.63;4.43;;;21.60;58.20;;;21.23;50.63;98194.69;5045837;28;20055;-38
2022/05/17 08:55:02;;;;;;;6.60;3.40;;;21.60;57.50;;;21.26;50.53;98180.69;5046427;28;20048;-38
2022/05/17 08:57:48;;;;;;;6.68;4.35;;;21.70;58.80;;;21.31;50.45;98185.47;5045772;28;20053;-38
2022/05/17 09:00:21;;;;;;;6.25;4.03;;;21.70;57.20;;;21.36;51.52;98185.66;5046052;28;20048;-38
2022/05/17 09:03:01;;;;;;;10.40;4.90;;;21.80;58.90;;;21.46;51.33;98185.19;5046054;28;20377;-38
2022/05/17 09:05:49;;;;;;;5.95;4.00;;;21.90;57.80;;;21.56;51.15;98188.28;5044321;28;20055;-38
2022/05/17 09:08:32;;;;;;;6.30;4.80;;;22.00;57.20;;;21.65;51.07;98178.81;5045028;28;20057;-38
2022/05/17 09:11:21;;;;;;;7.93;4.28;;;22.10;58.30;;;21.74;50.32;98190.22;5046352;28;20068;-38
2022/05/17 09:14:22;;;;;;;7.55;4.45;;;22.30;56.90;;;21.80;50.21;98184.75;5044504;28;20045;-38
2022/05/17 09:17:15;;;;;;;10.18;4.95;;;22.30;56.00;;;21.86;50.36;98179.50;5045404;28;20061;-38
2022/05/17 09:19:43;;;;;;;10.07;4.97;;;22.30;55.80;;;21.89;49.64;98182.59;5045912;28;20056;-38
2022/05/17 09:22:11;;;;;;;5.50;4.18;;;22.40;56.60;;;21.91;49.86;98182.41;5045994;28;20259;-38
2022/05/17 09:24:43;;;;;;;8.20;4.80;;;22.20;56.80;;;21.91;49.38;98188.63;5045901;28;20048;-38
2022/05/17 09:27:29;;;;;;;7.70;4.80;;;22.30;56.20;;;21.94;49.84;98182.75;5045840;28;20048;-38
2022/05/17 09:30:11;;;;;;;5.05;3.67;;;22.30;56.80;;;21.98;49.83;98186.72;5045640;28;20048;-38
2022/05/17 09:32:44;;;;;;;7.30;4.18;;;22.40;55.40;;;22.02;49.48;98187.06;5046703;28;20045;-38
2022/05/17 09:35:20;;;;;;;7.22;4.82;;;22.40;55.60;;;22.00;48.31;98190.03;5047055;28;20053;-38
2022/05/17 09:37:58;;;;;;;5.53;3.80;;;22.40;53.60;;;22.03;49.16;98186.03;5046862;28;20055;-38
2022/05/17 09:40:35;;;;;;;6.03;4.55;;;22.40;55.20;;;22.07;48.91;98186.44;5050720;28;20220;-38
2022/05/17 09:43:09;;;;;;;5.65;4.07;;;22.40;55.10;;;22.08;48.72;98178.06;5049757;28;20119;-38
2022/05/17 09:46:00;;;;;;;7.10;4.30;;;22.40;54.30;;;22.06;47.95;98185.56;5050298;28;20049;-38
2022/05/17 09:54:39;;;;;;;5.65;4.30;;;22.10;54.50;;;21.93;48.41;98183.00;5047668;28;20045;-38
2022/05/17 09:57:31;;;;;;;4.90;3.53;;;22.10;53.90;;;21.91;47.91;98180.50;5049750;28;20063;-38
2022/05/17 10:00:12;;;;;;;5.47;3.58;;;22.10;54.00;;;21.88;48.00;98175.50;5047953;28;20061;-37
2022/05/17 10:03:03;;;;;;;5.40;3.97;;;22.10;54.00;;;21.94;47.57;98171.91;5048566;28;20059;-38
2022/05/17 10:05:37;;;;;;;5.28;3.45;;;22.20;53.70;;;21.98;47.70;98178.56;5050346;28;20053;-37
2022/05/17 10:08:27;;;;;;;5.18;3.08;;;22.30;53.30;;;22.03;47.33;98175.19;5049702;28;20354;-37
2022/05/17 10:11:15;;;;;;;5.22;2.95;;;22.30;53.50;;;22.06;46.26;98177.44;5049752;28;20056;-37
2022/05/17 10:14:09;;;;;;;8.10;3.17;;;22.40;52.40;;;22.09;45.69;98170.75;5049467;28;20053;-38
2022/05/17 10:16:38;;;;;;;4.75;3.30;;;22.40;51.90;;;22.14;45.94;98168.19;5049560;28;20211;-37
2022/05/17 10:19:30;;;;;;;6.20;3.15;;;22.40;52.20;;;22.18;46.11;98164.84;5048275;28;20056;-38
2022/05/17 10:22:16;;;;;;;6.05;3.08;;;22.50;51.00;;;22.23;46.17;98169.56;5048896;28;20052;-37
2022/05/17 10:25:35;;;;;;;4.13;2.85;;;22.60;52.00;;;22.25;45.11;98155.81;5048183;28;20053;-38
2022/05/17 10:28:22;;;;;;;4.47;2.58;;;22.70;49.20;;;22.28;44.11;98161.63;5048750;28;20071;-38
2022/05/17 10:31:02;;;;;;;6.13;2.92;;;22.60;47.10;;;22.30;43.92;98162.25;5048338;28;20045;-37
2022/05/17 10:33:39;;;;;;;4.85;3.33;;;22.60;48.70;;;22.21;43.26;98166.25;5047129;28;20061;-37
2022/05/17 10:36:23;;;;;;;5.88;3.03;;;22.50;48.40;;;22.23;44.11;98156.00;5047145;28;20044;-38
2022/05/17 10:39:03;;;;;;;4.43;2.72;;;22.50;49.90;;;22.23;42.84;98150.59;5049517;28;20044;-38
2022/05/17 10:41:31;;;;;;;5.78;2.65;;;22.50;47.50;;;22.29;43.30;98144.28;5047915;28;20045;-37
2022/05/17 10:43:59;;;;;;;3.92;2.35;;;22.60;48.70;;;22.32;43.19;98145.75;5048389;28;20053;-37
2022/05/17 10:46:32;;;;;;;4.00;2.70;;;22.60;48.10;;;22.35;42.90;98145.28;5048113;28;20067;-37
2022/05/17 10:49:33;;;;;;;4.90;3.40;;;22.70;47.30;;;22.42;42.53;98141.44;5047498;28;20224;-37
2022/05/17 10:52:31;;;;;;;3.95;2.90;;;22.80;47.60;;;22.51;42.60;98141.16;5047028;28;20059;-37
2022/05/17 10:55:28;;;;;;;3.88;3.13;;;22.80;45.50;;;22.52;42.56;98131.97;5049057;28;20052;-37